Huancavelica, Peru
Current Conditions -  °F | °C
As of 6:00 PM on Wednesday 22 Oct 2014 (Local Time) from SPHO Reporting Station
Broken Clouds Broken Clouds  
Wind Chill: 68°   Ceiling: 9000
Heat Index: 68°   Visibility: 6mi
Dew Point: 48°   Wind: 5mph
Humidity: 49%   Direction: 160°SSE
Pressure: 30.3"   Gusts: NA
Location:  12.79°S, 74.99°W
Report Text: SPHO 222300Z 16004KT 120V180 9999 BKN090 20/09 Q1026 RMK PP000
Loading
Personal Weather Stations






























Interactive Weather Map
Tropical Storm Tracking
New forecast layout! Learn more

10-Day Weather Forecast

Advertisements
Track Severe Weather on mobile